createdAt,value
2019-03-08T00:00:47.122Z,2.50
2019-03-08T00:03:13.835Z,3.30
2019-03-08T00:05:40.679Z,2.90
2019-03-08T00:08:07.302Z,2.87
2019-03-08T00:10:33.848Z,2.93
2019-03-08T00:13:00.488Z,4.10
2019-03-08T00:15:27.030Z,2.43
2019-03-08T00:17:53.735Z,2.07
2019-03-08T00:20:20.273Z,3.13
2019-03-08T00:22:46.696Z,2.80
2019-03-08T00:25:13.715Z,4.70
2019-03-08T00:27:40.472Z,2.50
2019-03-08T00:30:09.488Z,2.70
2019-03-08T00:32:36.131Z,3.03
2019-03-08T00:35:05.246Z,3.03
2019-03-08T00:37:31.790Z,2.27
2019-03-08T00:39:58.299Z,3.33
2019-03-08T00:42:24.862Z,3.07
2019-03-08T00:44:51.387Z,2.63
2019-03-08T00:47:17.933Z,3.33
2019-03-08T00:49:44.443Z,3.00
2019-03-08T00:52:11.075Z,2.50
2019-03-08T00:54:37.706Z,2.60
2019-03-08T00:57:04.239Z,2.70
2019-03-08T00:59:31.252Z,4.87
2019-03-08T01:01:57.790Z,4.30
2019-03-08T01:04:24.291Z,2.60
2019-03-08T01:06:50.829Z,4.30
2019-03-08T01:09:17.847Z,2.97
2019-03-08T01:11:45.327Z,2.77
2019-03-08T01:14:11.931Z,3.40
2019-03-08T01:16:38.467Z,4.50
2019-03-08T01:19:05.103Z,2.80
2019-03-08T01:21:31.753Z,2.60
2019-03-08T01:23:58.172Z,2.57
2019-03-08T01:26:25.023Z,3.73
2019-03-08T01:28:51.437Z,4.13
2019-03-08T01:31:17.974Z,2.60
2019-03-08T01:33:44.491Z,3.00
2019-03-08T01:36:11.228Z,2.80
2019-03-08T01:38:39.239Z,3.57
2019-03-08T01:41:05.785Z,3.83
2019-03-08T01:43:32.710Z,5.07
2019-03-08T01:45:59.339Z,4.43
2019-03-08T01:48:26.060Z,3.10
2019-03-08T01:50:52.564Z,3.27
2019-03-08T01:53:19.124Z,2.93
2019-03-08T01:55:45.634Z,3.43
2019-03-08T01:58:12.300Z,2.70
2019-03-08T02:00:40.835Z,4.67
2019-03-08T02:03:07.469Z,3.60
2019-03-08T02:05:33.982Z,5.03
2019-03-08T02:08:00.418Z,2.93
2019-03-08T02:10:26.826Z,3.83
2019-03-08T02:12:55.108Z,3.53
2019-03-08T02:15:21.627Z,3.53
2019-03-08T02:17:48.459Z,4.70
2019-03-08T02:20:19.954Z,3.80
2019-03-08T02:22:46.394Z,3.07
2019-03-08T02:25:12.935Z,3.33
2019-03-08T02:27:39.481Z,3.17
2019-03-08T02:30:12.143Z,3.47
2019-03-08T02:32:38.988Z,3.73
2019-03-08T02:35:06.702Z,4.73
2019-03-08T02:37:33.242Z,3.70
2019-03-08T02:39:59.762Z,5.93
2019-03-08T02:42:26.404Z,5.83
2019-03-08T02:44:52.934Z,4.03
2019-03-08T02:47:19.467Z,3.63
2019-03-08T02:49:46.179Z,3.73
2019-03-08T02:52:12.714Z,4.20
2019-03-08T02:54:39.223Z,5.20
2019-03-08T02:57:05.875Z,4.20
2019-03-08T02:59:32.388Z,4.90
2019-03-08T03:01:59.026Z,5.63
2019-03-08T03:04:25.636Z,6.17
2019-03-08T03:06:52.180Z,5.83
2019-03-08T03:09:18.710Z,5.33
2019-03-08T03:11:45.466Z,6.27
2019-03-08T03:14:11.981Z,6.77
2019-03-08T03:16:38.524Z,6.00
2019-03-08T03:19:05.031Z,6.23
2019-03-08T03:21:31.556Z,5.63
2019-03-08T03:23:58.094Z,6.33
2019-03-08T03:26:24.605Z,6.53
2019-03-08T03:28:51.246Z,7.73
2019-03-08T03:31:17.868Z,6.50
2019-03-08T03:33:44.595Z,6.00
2019-03-08T03:36:11.237Z,6.67
2019-03-08T03:38:37.830Z,6.80
2019-03-08T03:41:04.766Z,8.03
2019-03-08T03:43:31.394Z,7.00
2019-03-08T03:45:57.928Z,6.23
2019-03-08T03:48:24.550Z,6.50
2019-03-08T03:50:51.106Z,6.50
2019-03-08T03:53:17.632Z,7.10
2019-03-08T03:55:44.164Z,7.37
2019-03-08T03:58:10.685Z,7.20
2019-03-08T04:00:37.449Z,8.33
2019-03-08T04:03:03.959Z,7.10
2019-03-08T04:05:30.599Z,8.07
2019-03-08T04:07:57.214Z,8.07
2019-03-08T04:10:23.851Z,7.53
2019-03-08T04:12:50.469Z,7.30
2019-03-08T04:15:18.403Z,6.70
2019-03-08T04:17:45.424Z,7.17
2019-03-08T04:20:17.065Z,6.90
2019-03-08T04:22:43.684Z,6.13
2019-03-08T04:25:11.712Z,6.13
2019-03-08T04:27:38.252Z,6.37
2019-03-08T04:30:11.182Z,6.93
2019-03-08T04:32:37.915Z,6.30
2019-03-08T04:35:04.974Z,6.37
2019-03-08T04:37:31.523Z,6.27
2019-03-08T04:39:58.153Z,7.50
2019-03-08T04:42:26.382Z,6.07
2019-03-08T04:44:52.895Z,6.20
2019-03-08T04:47:19.436Z,6.53
2019-03-08T04:49:46.379Z,7.03
2019-03-08T04:52:12.918Z,6.67
2019-03-08T04:54:39.556Z,6.87
2019-03-08T04:57:07.795Z,7.27
2019-03-08T04:59:34.403Z,7.13
2019-03-08T05:02:02.060Z,6.37
2019-03-08T05:04:28.680Z,6.30
2019-03-08T05:06:55.539Z,5.43
2019-03-08T05:09:22.137Z,6.80
2019-03-08T05:11:48.683Z,5.80
2019-03-08T05:14:15.199Z,5.00
2019-03-08T05:16:41.727Z,6.07
2019-03-08T05:19:08.444Z,7.90
2019-03-08T05:21:35.074Z,4.97
2019-03-08T05:24:01.797Z,3.70
2019-03-08T05:26:28.318Z,5.17
2019-03-08T05:28:56.538Z,4.93
2019-03-08T05:31:24.771Z,4.97
2019-03-08T05:33:51.386Z,3.93
2019-03-08T05:36:17.928Z,4.30
2019-03-08T05:38:44.477Z,4.03
2019-03-08T05:41:12.893Z,4.20
2019-03-08T05:43:39.875Z,4.33
2019-03-08T05:46:06.491Z,3.97
2019-03-08T05:48:33.228Z,4.13
2019-03-08T05:50:59.736Z,4.40
2019-03-08T05:53:26.479Z,4.90
2019-03-08T05:55:53.000Z,5.97
2019-03-08T05:58:19.540Z,6.37
2019-03-08T06:00:46.547Z,4.07
2019-03-08T06:03:13.193Z,2.90
2019-03-08T06:05:39.817Z,3.33
2019-03-08T06:08:07.405Z,9.87
2019-03-08T06:10:35.919Z,7.77
2019-03-08T06:13:04.666Z,9.17
2019-03-08T06:15:31.180Z,9.67
2019-03-08T06:17:58.018Z,5.93
2019-03-08T06:20:24.831Z,6.90
2019-03-08T06:22:51.991Z,9.07
2019-03-08T06:25:18.594Z,5.43
2019-03-08T06:27:45.234Z,4.57
2019-03-08T06:30:12.978Z,3.33
2019-03-08T06:32:39.821Z,2.93
2019-03-08T06:35:07.104Z,2.70
2019-03-08T06:37:34.021Z,2.63
2019-03-08T06:40:00.564Z,3.20
2019-03-08T06:42:28.797Z,2.63
2019-03-08T06:44:55.415Z,2.30
2019-03-08T06:47:22.165Z,2.13
2019-03-08T06:49:48.820Z,2.50
2019-03-08T06:52:15.846Z,2.40
2019-03-08T06:54:42.467Z,2.00
2019-03-08T06:57:09.131Z,1.77
2019-03-08T06:59:37.654Z,1.53
2019-03-08T07:02:04.171Z,3.23
2019-03-08T07:04:30.707Z,1.40
2019-03-08T07:06:57.224Z,1.60
2019-03-08T07:09:23.796Z,2.63
2019-03-08T07:11:50.579Z,2.13
2019-03-08T07:14:17.125Z,2.87
2019-03-08T07:16:43.739Z,2.20
2019-03-08T07:19:10.375Z,2.17
2019-03-08T07:21:38.681Z,2.90
2019-03-08T07:24:09.725Z,3.10
2019-03-08T07:26:56.871Z,2.60
2019-03-08T07:29:25.321Z,3.50
2019-03-08T07:31:59.833Z,3.63
2019-03-08T07:34:29.986Z,4.30
2019-03-08T07:37:10.692Z,4.83
2019-03-08T07:39:56.047Z,2.60
2019-03-08T07:42:34.062Z,2.20
2019-03-08T07:45:19.651Z,2.93
2019-03-08T07:47:57.570Z,3.30
2019-03-08T07:50:34.850Z,2.57
2019-03-08T07:53:18.668Z,2.80
2019-03-08T07:55:58.950Z,1.43
2019-03-08T07:58:30.403Z,1.53
2019-03-08T08:01:09.474Z,1.77
2019-03-08T08:03:53.244Z,2.70
2019-03-08T08:06:24.175Z,4.43
2019-03-08T08:08:55.402Z,3.20
2019-03-08T08:11:29.648Z,6.70
2019-03-08T08:14:14.951Z,3.43
2019-03-08T08:16:59.939Z,5.07
2019-03-08T08:19:45.399Z,5.80
2019-03-08T08:22:19.893Z,7.63
2019-03-08T08:24:57.423Z,8.53
2019-03-08T08:27:25.841Z,10.30
2019-03-08T08:30:00.362Z,9.60
2019-03-08T08:32:37.814Z,10.17
2019-03-08T08:35:26.046Z,9.60
2019-03-08T08:37:57.486Z,8.87
2019-03-08T08:40:28.906Z,7.10
2019-03-08T08:42:57.315Z,8.70
2019-03-08T08:45:28.681Z,9.30
2019-03-08T08:48:12.308Z,10.60
2019-03-08T08:50:46.854Z,9.63
2019-03-08T08:53:33.292Z,14.07
2019-03-08T08:56:13.805Z,14.93
2019-03-08T08:58:45.417Z,14.00
2019-03-08T09:01:14.012Z,17.30
2019-03-08T09:03:42.432Z,15.37
2019-03-08T09:06:20.131Z,14.23
2019-03-08T09:08:51.060Z,14.10
2019-03-08T09:11:19.607Z,19.83
2019-03-08T09:13:48.132Z,13.70
2019-03-08T09:16:16.567Z,22.27
2019-03-08T09:18:47.865Z,17.87
2019-03-08T09:21:32.947Z,14.37
2019-03-08T09:24:01.678Z,19.80
2019-03-08T09:26:38.852Z,14.00
2019-03-08T09:29:13.222Z,17.83
2019-03-08T09:31:54.175Z,19.47
2019-03-08T09:34:28.789Z,14.03
2019-03-08T09:37:06.211Z,18.30
2019-03-08T09:39:40.431Z,14.30
2019-03-08T09:42:11.753Z,15.00
2019-03-08T09:44:58.784Z,17.17
2019-03-08T09:47:27.995Z,18.87
2019-03-08T09:49:56.935Z,16.20
2019-03-08T09:52:25.459Z,18.17
2019-03-08T09:54:56.765Z,20.23
2019-03-08T09:57:25.187Z,17.50
2019-03-08T10:00:10.687Z,21.83
2019-03-08T10:02:55.806Z,13.93
2019-03-08T10:05:24.288Z,14.50
2019-03-08T10:08:09.316Z,17.97
2019-03-08T10:10:37.818Z,13.80
2019-03-08T10:13:11.735Z,14.80
2019-03-08T10:15:42.869Z,15.03
2019-03-08T10:18:14.427Z,14.67
2019-03-08T10:20:45.378Z,10.50
2019-03-08T10:23:28.979Z,19.23
2019-03-08T10:26:03.418Z,13.30
2019-03-08T10:28:40.767Z,16.43
2019-03-08T10:31:12.363Z,8.77
2019-03-08T10:33:46.412Z,8.47
2019-03-08T10:36:22.879Z,9.70
2019-03-08T10:38:51.294Z,10.10
2019-03-08T10:41:22.668Z,12.13
2019-03-08T10:43:51.027Z,14.77
2019-03-08T10:46:25.214Z,10.63
2019-03-08T10:48:53.723Z,13.57
2019-03-08T10:51:28.079Z,15.53
2019-03-08T10:54:02.146Z,9.13
2019-03-08T10:56:30.695Z,12.10
2019-03-08T10:59:01.913Z,12.40
2019-03-08T11:01:39.826Z,10.83
2019-03-08T11:04:08.448Z,11.27
2019-03-08T11:06:48.706Z,11.63
2019-03-08T11:09:27.980Z,13.73
2019-03-08T11:11:58.875Z,15.70
2019-03-08T11:14:29.940Z,7.43
2019-03-08T11:17:04.203Z,18.13
2019-03-08T11:19:49.610Z,11.27
2019-03-08T11:22:20.750Z,12.27
2019-03-08T11:25:08.240Z,10.50
2019-03-08T11:27:31.728Z,10.60
2019-03-08T11:30:09.403Z,8.90
2019-03-08T11:32:37.726Z,12.37
2019-03-08T11:35:17.996Z,10.90
2019-03-08T11:37:48.832Z,8.40
2019-03-08T11:40:33.890Z,10.83
2019-03-08T11:43:02.583Z,6.60
2019-03-08T11:45:30.996Z,5.40
2019-03-08T11:47:59.414Z,8.37
2019-03-08T11:50:27.970Z,6.23
2019-03-08T11:53:05.935Z,5.97
2019-03-08T11:55:35.548Z,8.20
2019-03-08T11:58:04.979Z,14.17
2019-03-08T12:00:36.407Z,14.13
2019-03-08T12:03:05.431Z,4.87
2019-03-08T12:05:46.283Z,10.10
2019-03-08T12:08:17.718Z,11.20
2019-03-08T12:10:52.104Z,10.20
2019-03-08T12:13:23.687Z,9.47
2019-03-08T12:15:52.100Z,9.47
2019-03-08T12:18:23.283Z,5.97
2019-03-08T12:20:51.836Z,12.37
2019-03-08T12:23:29.050Z,12.43
2019-03-08T12:26:13.249Z,11.57
2019-03-08T12:28:50.518Z,7.57
2019-03-08T12:31:18.999Z,12.40
2019-03-08T12:33:59.211Z,12.40
2019-03-08T12:36:28.426Z,8.57
2019-03-08T12:39:08.574Z,11.77
2019-03-08T12:41:43.171Z,10.70
2019-03-08T12:44:14.749Z,11.57
2019-03-08T12:46:43.319Z,9.90
2019-03-08T12:49:28.324Z,10.30
2019-03-08T12:51:56.879Z,10.33
2019-03-08T12:54:25.315Z,15.40
2019-03-08T12:56:56.532Z,13.63
2019-03-08T12:59:25.051Z,13.73
2019-03-08T13:01:59.622Z,9.13
2019-03-08T13:04:45.022Z,6.60
2019-03-08T13:07:30.344Z,12.20
2019-03-08T13:09:58.855Z,12.60
2019-03-08T13:12:25.646Z,6.43
2019-03-08T13:14:52.194Z,13.37
2019-03-08T13:17:18.959Z,9.70
2019-03-08T13:19:45.507Z,10.97
2019-03-08T13:22:12.179Z,9.40
2019-03-08T13:24:38.733Z,7.70
2019-03-08T13:27:05.283Z,12.40
2019-03-08T13:29:31.896Z,8.00
2019-03-08T13:31:58.625Z,8.27
2019-03-08T13:34:25.339Z,9.63
2019-03-08T13:36:51.951Z,8.73
2019-03-08T13:39:18.511Z,8.57
2019-03-08T13:41:45.124Z,11.73
2019-03-08T13:44:11.816Z,9.20
2019-03-08T13:46:38.297Z,8.07
2019-03-08T13:49:04.855Z,8.37
2019-03-08T13:51:31.472Z,6.50
2019-03-08T13:53:58.032Z,9.00
2019-03-08T13:56:24.645Z,9.70
2019-03-08T13:58:51.306Z,9.60
2019-03-08T14:01:18.815Z,9.30
2019-03-08T14:03:47.090Z,9.93
2019-03-08T14:06:13.631Z,12.53
2019-03-08T14:08:40.423Z,10.23
2019-03-08T14:11:07.242Z,5.80
2019-03-08T14:13:33.934Z,11.67
2019-03-08T14:16:00.407Z,8.67
2019-03-08T14:18:27.050Z,12.00
2019-03-08T14:20:53.724Z,10.10
2019-03-08T14:23:20.375Z,8.07
2019-03-08T14:25:46.938Z,8.80
2019-03-08T14:28:15.143Z,13.00
2019-03-08T14:30:46.523Z,7.97
2019-03-08T14:33:13.044Z,7.80
2019-03-08T14:35:39.734Z,8.90
2019-03-08T14:38:07.838Z,7.90
2019-03-08T14:40:36.403Z,6.43
2019-03-08T14:43:05.050Z,8.37
2019-03-08T14:45:33.823Z,10.07
2019-03-08T14:48:00.232Z,9.70
2019-03-08T14:50:27.188Z,6.00
2019-03-08T14:52:55.258Z,4.03
2019-03-08T14:55:22.976Z,9.53
2019-03-08T14:57:50.519Z,6.53
2019-03-08T15:00:18.997Z,6.37
2019-03-08T15:02:48.637Z,7.43
2019-03-08T15:05:15.441Z,7.73
2019-03-08T15:07:43.791Z,6.03
2019-03-08T15:10:13.439Z,8.83
2019-03-08T15:12:48.901Z,7.73
2019-03-08T15:15:11.664Z,7.43
2019-03-08T15:17:39.303Z,7.60
2019-03-08T15:20:15.181Z,6.57
2019-03-08T15:22:38.003Z,11.97
2019-03-08T15:25:08.447Z,4.97
2019-03-08T15:27:36.787Z,7.23
2019-03-08T15:30:13.050Z,6.50
2019-03-08T15:32:39.715Z,5.90
2019-03-08T15:35:08.960Z,8.93
2019-03-08T15:37:43.798Z,7.87
2019-03-08T15:40:13.618Z,5.17
2019-03-08T15:42:40.213Z,7.20
2019-03-08T15:45:09.113Z,8.50
2019-03-08T15:47:36.262Z,7.27
2019-03-08T15:50:10.770Z,7.40
2019-03-08T15:52:37.344Z,8.90
2019-03-08T15:55:06.284Z,6.90
2019-03-08T15:57:32.879Z,5.23
2019-03-08T15:59:59.457Z,9.50
2019-03-08T16:02:25.968Z,8.17
2019-03-08T16:04:52.527Z,9.50
2019-03-08T16:07:23.052Z,8.47
2019-03-08T16:09:47.462Z,8.40
2019-03-08T16:12:14.139Z,8.37
2019-03-08T16:14:40.747Z,8.27
2019-03-08T16:17:09.478Z,12.03
2019-03-08T16:19:36.093Z,7.23
2019-03-08T16:22:02.851Z,8.80
2019-03-08T16:24:31.279Z,7.17
2019-03-08T16:26:58.713Z,7.03
2019-03-08T16:29:26.266Z,7.83
2019-03-08T16:31:55.021Z,6.00
2019-03-08T16:34:22.615Z,9.60
2019-03-08T16:37:03.457Z,8.60
2019-03-08T16:39:34.428Z,6.50
2019-03-08T16:42:20.091Z,11.30
2019-03-08T16:44:51.026Z,6.73
2019-03-08T16:47:31.354Z,5.60
2019-03-08T16:50:05.275Z,5.00
2019-03-08T16:52:40.118Z,7.87
2019-03-08T16:55:28.131Z,8.10
2019-03-08T16:57:56.688Z,9.20
2019-03-08T17:00:25.251Z,12.07
2019-03-08T17:02:56.380Z,10.40
2019-03-08T17:05:41.258Z,6.40
2019-03-08T17:08:09.776Z,8.33
2019-03-08T17:10:42.558Z,9.00
2019-03-08T17:13:25.902Z,11.43
2019-03-08T17:15:55.165Z,13.93
2019-03-08T17:18:29.919Z,12.50
2019-03-08T17:21:01.520Z,8.63
2019-03-08T17:23:32.794Z,11.00
2019-03-08T17:26:18.136Z,13.10
2019-03-08T17:28:49.158Z,13.47
2019-03-08T17:31:17.811Z,10.70
2019-03-08T17:33:58.393Z,10.80
2019-03-08T17:36:26.959Z,10.90
2019-03-08T17:38:55.412Z,13.30
2019-03-08T17:41:23.971Z,6.17
2019-03-08T17:43:58.303Z,10.40
2019-03-08T17:46:26.755Z,9.63
2019-03-08T17:48:56.543Z,11.07
2019-03-08T17:51:30.888Z,11.43
2019-03-08T17:54:16.131Z,8.40
2019-03-08T17:56:50.719Z,10.90
2019-03-08T17:59:31.403Z,11.70
2019-03-08T18:02:02.599Z,10.30
2019-03-08T18:04:31.079Z,9.33
2019-03-08T18:06:59.499Z,8.87
2019-03-08T18:09:45.943Z,9.47
2019-03-08T18:12:29.331Z,9.70
2019-03-08T18:15:00.336Z,12.40
2019-03-08T18:17:28.638Z,8.63
2019-03-08T18:20:03.159Z,9.87
2019-03-08T18:22:34.097Z,7.33
2019-03-08T18:25:02.587Z,10.60
2019-03-08T18:27:34.426Z,10.13
2019-03-08T18:30:19.247Z,12.90
2019-03-08T18:32:50.779Z,8.70
2019-03-08T18:35:36.170Z,8.00
2019-03-08T18:38:13.697Z,13.63
2019-03-08T18:40:47.952Z,8.27
2019-03-08T18:43:16.827Z,9.00
2019-03-08T18:46:03.391Z,13.93
2019-03-08T18:48:31.750Z,10.50
2019-03-08T18:51:03.314Z,7.33
2019-03-08T18:53:35.123Z,8.27
2019-03-08T18:56:03.710Z,14.30
2019-03-08T18:58:47.217Z,12.57
2019-03-08T19:01:32.261Z,7.50
2019-03-08T19:04:00.773Z,7.13
2019-03-08T19:06:45.591Z,12.70
2019-03-08T19:09:14.066Z,9.33
2019-03-08T19:11:48.602Z,12.43
2019-03-08T19:14:25.967Z,9.93
2019-03-08T19:16:54.369Z,10.77
2019-03-08T19:19:22.926Z,13.63
2019-03-08T19:21:51.347Z,16.13
2019-03-08T19:24:22.586Z,52.00
2019-03-08T19:26:57.283Z,7.50
2019-03-08T19:29:41.963Z,10.37
2019-03-08T19:32:12.999Z,10.90
2019-03-08T19:34:56.546Z,10.80
2019-03-08T19:37:25.115Z,9.30
2019-03-08T19:40:02.844Z,9.07
2019-03-08T19:42:43.687Z,6.83
2019-03-08T19:45:28.712Z,10.10
2019-03-08T19:48:14.027Z,8.10
2019-03-08T19:50:42.426Z,7.37
2019-03-08T19:53:20.370Z,9.97
2019-03-08T19:55:48.709Z,14.73
2019-03-08T19:58:26.510Z,7.93
2019-03-08T20:01:04.056Z,10.23
2019-03-08T20:03:32.551Z,10.33
2019-03-08T20:06:18.981Z,7.90
2019-03-08T20:08:47.596Z,9.07
2019-03-08T20:11:21.573Z,10.63
2019-03-08T20:13:53.503Z,7.70
2019-03-08T20:16:28.411Z,7.90
2019-03-08T20:19:05.947Z,14.43
2019-03-08T20:21:34.537Z,7.43
2019-03-08T20:24:09.008Z,11.00
2019-03-08T20:26:46.453Z,9.60
2019-03-08T20:29:30.369Z,11.63
2019-03-08T20:32:02.369Z,8.57
2019-03-08T20:34:50.346Z,9.43
2019-03-08T20:37:18.854Z,7.80
2019-03-08T20:39:54.475Z,10.63
2019-03-08T20:42:42.956Z,15.97
2019-03-08T20:45:20.570Z,12.93
2019-03-08T20:47:47.548Z,12.80
2019-03-08T20:50:15.885Z,10.47
2019-03-08T20:52:42.785Z,13.50
2019-03-08T20:55:10.185Z,12.50
2019-03-08T20:57:36.691Z,11.60
2019-03-08T21:00:10.488Z,9.60
2019-03-08T21:02:36.881Z,14.67
2019-03-08T21:05:05.182Z,10.77
2019-03-08T21:07:31.679Z,9.60
2019-03-08T21:09:58.287Z,10.77
2019-03-08T21:12:24.960Z,12.73
2019-03-08T21:14:51.693Z,7.33
2019-03-08T21:17:18.672Z,9.33
2019-03-08T21:19:45.342Z,12.33
2019-03-08T21:22:11.891Z,15.97
2019-03-08T21:24:38.672Z,13.97
2019-03-08T21:27:05.298Z,11.97
2019-03-08T21:29:32.860Z,9.80
2019-03-08T21:31:59.838Z,12.00
2019-03-08T21:34:27.457Z,9.40
2019-03-08T21:36:54.217Z,14.30
2019-03-08T21:39:21.859Z,13.77
2019-03-08T21:41:48.534Z,11.80
2019-03-08T21:44:15.102Z,8.80
2019-03-08T21:46:41.768Z,12.20
2019-03-08T21:49:08.535Z,16.40
2019-03-08T21:51:35.093Z,15.60
2019-03-08T21:54:01.657Z,10.67
2019-03-08T21:56:28.183Z,13.23
2019-03-08T21:58:54.740Z,13.90
2019-03-08T22:01:21.255Z,10.40
2019-03-08T22:03:49.926Z,12.40
2019-03-08T22:06:16.435Z,12.10
2019-03-08T22:08:50.448Z,12.70
2019-03-08T22:11:18.370Z,10.47
2019-03-08T22:13:44.825Z,15.90
2019-03-08T22:16:11.335Z,14.00
2019-03-08T22:18:37.897Z,12.30
2019-03-08T22:21:04.528Z,15.00
2019-03-08T22:23:31.183Z,10.10
2019-03-08T22:25:57.751Z,8.13
2019-03-08T22:28:24.291Z,16.80
2019-03-08T22:30:51.127Z,12.90
2019-03-08T22:33:17.844Z,16.30
2019-03-08T22:35:44.403Z,11.80
2019-03-08T22:38:11.023Z,11.13
2019-03-08T22:40:37.582Z,17.70
2019-03-08T22:43:04.143Z,18.17
2019-03-08T22:45:30.915Z,8.37
2019-03-08T22:47:57.525Z,10.97
2019-03-08T22:50:24.139Z,15.73
2019-03-08T22:52:50.789Z,8.73
2019-03-08T22:55:17.408Z,14.47
2019-03-08T22:57:43.958Z,14.60
2019-03-08T23:00:31.672Z,11.63
2019-03-08T23:02:58.171Z,10.23
2019-03-08T23:05:24.935Z,8.70
2019-03-08T23:07:51.438Z,9.50
2019-03-08T23:10:19.714Z,12.23
2019-03-08T23:12:47.920Z,12.30
2019-03-08T23:15:14.759Z,10.77
2019-03-08T23:17:41.326Z,6.67
2019-03-08T23:20:08.217Z,8.83
2019-03-08T23:22:34.976Z,11.20
2019-03-08T23:25:01.551Z,11.33
2019-03-08T23:27:29.974Z,9.53
2019-03-08T23:29:59.354Z,8.87
2019-03-08T23:32:27.851Z,14.00
2019-03-08T23:34:54.454Z,8.77
2019-03-08T23:37:21.083Z,13.60
2019-03-08T23:39:47.744Z,11.10
2019-03-08T23:42:14.383Z,8.57
2019-03-08T23:44:41.295Z,11.53
2019-03-08T23:47:07.842Z,11.00
2019-03-08T23:49:34.346Z,10.47
2019-03-08T23:52:00.886Z,9.43
2019-03-08T23:54:27.402Z,8.23
2019-03-08T23:56:53.951Z,10.00
2019-03-08T23:59:20.459Z,9.43
